sensor_id;sensor_type;location;lat;lon;timestamp;pressure;altitude;pressure_sealevel;temperature;humidity
73858;BME280;62195;55.030;73.278;2022-09-23T00:02:01;101055.81;;;11.50;61.01
73858;BME280;62195;55.030;73.278;2022-09-23T00:04:37;101050.41;;;11.55;60.66
73858;BME280;62195;55.030;73.278;2022-09-23T00:07:09;101047.69;;;11.57;60.49
73858;BME280;62195;55.030;73.278;2022-09-23T00:09:35;101047.59;;;11.60;60.96
73858;BME280;62195;55.030;73.278;2022-09-23T00:12:01;101049.28;;;11.61;59.70
73858;BME280;62195;55.030;73.278;2022-09-23T00:14:28;101047.59;;;11.60;60.31
73858;BME280;62195;55.030;73.278;2022-09-23T00:16:59;101039.00;;;11.55;60.10
73858;BME280;62195;55.030;73.278;2022-09-23T00:19:26;101045.88;;;11.59;60.36
73858;BME280;62195;55.030;73.278;2022-09-23T00:21:52;101034.00;;;11.48;60.53
73858;BME280;62195;55.030;73.278;2022-09-23T00:24:23;101045.06;;;11.57;61.10
73858;BME280;62195;55.030;73.278;2022-09-23T00:26:50;101045.06;;;11.57;61.06
73858;BME280;62195;55.030;73.278;2022-09-23T00:29:16;101045.88;;;11.59;60.23
73858;BME280;62195;55.030;73.278;2022-09-23T00:31:43;101038.91;;;11.58;61.09
73858;BME280;62195;55.030;73.278;2022-09-23T00:34:14;101045.13;;;11.55;60.09
73858;BME280;62195;55.030;73.278;2022-09-23T00:36:41;101044.31;;;11.53;60.92
73858;BME280;62195;55.030;73.278;2022-09-23T00:39:11;101051.47;;;11.49;61.01
73858;BME280;62195;55.030;73.278;2022-09-23T00:41:37;101053.31;;;11.47;61.17
73858;BME280;62195;55.030;73.278;2022-09-23T00:47:42;101050.97;;;11.40;60.46
73858;BME280;62195;55.030;73.278;2022-09-23T00:50:14;101047.38;;;11.42;61.74
73858;BME280;62195;55.030;73.278;2022-09-23T00:52:43;101048.28;;;11.41;61.40
73858;BME280;62195;55.030;73.278;2022-09-23T00:55:24;101045.72;;;11.40;60.75
73858;BME280;62195;55.030;73.278;2022-09-23T00:57:54;101045.88;;;11.35;61.60
73858;BME280;62195;55.030;73.278;2022-09-23T01:00:22;101045.31;;;11.27;61.12
73858;BME280;62195;55.030;73.278;2022-09-23T01:02:49;101043.69;;;11.22;61.45
73858;BME280;62195;55.030;73.278;2022-09-23T01:05:16;101033.53;;;11.13;61.78
73858;BME280;62195;55.030;73.278;2022-09-23T01:07:45;101049.06;;;11.19;61.54
73858;BME280;62195;55.030;73.278;2022-09-23T01:10:13;101046.50;;;11.18;62.00
73858;BME280;62195;55.030;73.278;2022-09-23T01:15:35;101053.03;;;11.06;62.29
73858;BME280;62195;55.030;73.278;2022-09-23T01:18:19;101053.97;;;11.05;61.71
73858;BME280;62195;55.030;73.278;2022-09-23T01:21:04;101054.88;;;11.04;61.59
73858;BME280;62195;55.030;73.278;2022-09-23T01:26:53;101050.63;;;11.00;62.29
73858;BME280;62195;55.030;73.278;2022-09-23T01:29:34;101047.91;;;11.03;61.99
73858;BME280;62195;55.030;73.278;2022-09-23T01:38:19;101056.06;;;10.95;62.32
73858;BME280;62195;55.030;73.278;2022-09-23T01:44:01;101055.41;;;10.88;62.63
73858;BME280;62195;55.030;73.278;2022-09-23T01:46:53;101064.00;;;10.93;62.96
73858;BME280;62195;55.030;73.278;2022-09-23T01:49:24;101065.50;;;11.01;61.85
73858;BME280;62195;55.030;73.278;2022-09-23T01:55:15;101070.75;;;11.01;61.49
73858;BME280;62195;55.030;73.278;2022-09-23T01:57:50;101075.66;;;11.10;61.47
73858;BME280;62195;55.030;73.278;2022-09-23T02:00:19;101068.53;;;11.14;62.67
73858;BME280;62195;55.030;73.278;2022-09-23T02:03:01;101070.16;;;11.18;61.86
73858;BME280;62195;55.030;73.278;2022-09-23T02:06:14;101065.75;;;11.18;61.85
73858;BME280;62195;55.030;73.278;2022-09-23T02:08:43;101065.81;;;11.17;61.49
73858;BME280;62195;55.030;73.278;2022-09-23T02:11:17;101079.59;;;11.23;61.32
73858;BME280;62195;55.030;73.278;2022-09-23T02:14:05;101082.28;;;11.22;62.30
73858;BME280;62195;55.030;73.278;2022-09-23T02:16:47;101082.00;;;11.30;62.36
73858;BME280;62195;55.030;73.278;2022-09-23T02:19:29;101088.84;;;11.34;61.32
73858;BME280;62195;55.030;73.278;2022-09-23T02:22:07;101092.28;;;11.36;60.92
73858;BME280;62195;55.030;73.278;2022-09-23T02:24:36;101088.59;;;11.40;61.54
73858;BME280;62195;55.030;73.278;2022-09-23T02:27:36;101080.72;;;11.40;62.06
73858;BME280;62195;55.030;73.278;2022-09-23T02:30:14;101071.03;;;11.42;61.46
73858;BME280;62195;55.030;73.278;2022-09-23T02:32:51;101073.38;;;11.50;61.63
73858;BME280;62195;55.030;73.278;2022-09-23T02:35:51;101079.56;;;11.49;61.10
73858;BME280;62195;55.030;73.278;2022-09-23T02:38:33;101079.25;;;11.57;61.05
73858;BME280;62195;55.030;73.278;2022-09-23T02:41:55;101085.31;;;11.59;60.33
73858;BME280;62195;55.030;73.278;2022-09-23T02:44:24;101078.00;;;11.67;60.45
73858;BME280;62195;55.030;73.278;2022-09-23T02:46:58;101078.56;;;11.75;60.04
73858;BME280;62195;55.030;73.278;2022-09-23T02:49:26;101074.72;;;11.84;60.82
73858;BME280;62195;55.030;73.278;2022-09-23T02:51:54;101079.75;;;11.90;60.59
73858;BME280;62195;55.030;73.278;2022-09-23T02:54:23;101072.47;;;11.97;59.91
73858;BME280;62195;55.030;73.278;2022-09-23T02:56:51;101072.22;;;12.03;59.52
73858;BME280;62195;55.030;73.278;2022-09-23T02:59:23;101083.13;;;12.16;59.40
73858;BME280;62195;55.030;73.278;2022-09-23T03:01:56;101079.13;;;12.30;59.56
73858;BME280;62195;55.030;73.278;2022-09-23T03:07:43;101074.06;;;12.46;57.61
73858;BME280;62195;55.030;73.278;2022-09-23T03:10:26;101074.78;;;12.50;57.26
73858;BME280;62195;55.030;73.278;2022-09-23T03:13:34;101082.38;;;12.57;56.84
73858;BME280;62195;55.030;73.278;2022-09-23T03:17:09;101083.78;;;12.66;56.89
73858;BME280;62195;55.030;73.278;2022-09-23T03:19:40;101057.63;;;12.62;56.31
73858;BME280;62195;55.030;73.278;2022-09-23T03:22:20;101076.94;;;12.83;56.52
73858;BME280;62195;55.030;73.278;2022-09-23T03:24:48;101073.69;;;12.97;56.34
73858;BME280;62195;55.030;73.278;2022-09-23T03:27:28;101075.88;;;13.08;56.00
73858;BME280;62195;55.030;73.278;2022-09-23T03:29:56;101078.03;;;13.19;56.52
73858;BME280;62195;55.030;73.278;2022-09-23T03:32:25;101072.34;;;13.28;55.16
73858;BME280;62195;55.030;73.278;2022-09-23T03:34:55;101072.78;;;13.38;55.83
73858;BME280;62195;55.030;73.278;2022-09-23T03:42:34;101076.25;;;13.59;55.46
73858;BME280;62195;55.030;73.278;2022-09-23T03:45:05;101072.44;;;13.67;55.40
73858;BME280;62195;55.030;73.278;2022-09-23T03:47:34;101071.06;;;13.77;55.30
73858;BME280;62195;55.030;73.278;2022-09-23T03:50:00;101076.84;;;13.85;54.33
73858;BME280;62195;55.030;73.278;2022-09-23T03:52:27;101064.28;;;13.90;54.72
73858;BME280;62195;55.030;73.278;2022-09-23T03:54:53;101081.41;;;14.01;54.78
73858;BME280;62195;55.030;73.278;2022-09-23T03:57:21;101049.44;;;13.88;54.79
73858;BME280;62195;55.030;73.278;2022-09-23T03:59:48;101070.06;;;14.16;54.13
73858;BME280;62195;55.030;73.278;2022-09-23T04:02:19;101074.16;;;14.24;54.25
73858;BME280;62195;55.030;73.278;2022-09-23T04:04:46;101084.41;;;14.30;53.92
73858;BME280;62195;55.030;73.278;2022-09-23T04:07:13;101070.91;;;14.36;53.46
73858;BME280;62195;55.030;73.278;2022-09-23T04:09:39;101073.38;;;14.39;53.44
73858;BME280;62195;55.030;73.278;2022-09-23T04:12:05;101074.09;;;14.43;53.93
73858;BME280;62195;55.030;73.278;2022-09-23T04:14:32;101075.44;;;14.52;54.09
73858;BME280;62195;55.030;73.278;2022-09-23T04:16:58;101076.81;;;14.59;53.80
73858;BME280;62195;55.030;73.278;2022-09-23T04:19:24;101069.28;;;14.69;53.60
73858;BME280;62195;55.030;73.278;2022-09-23T04:21:54;101072.19;;;14.82;53.48
73858;BME280;62195;55.030;73.278;2022-09-23T04:24:20;101059.59;;;14.87;53.63
73858;BME280;62195;55.030;73.278;2022-09-23T04:26:52;101072.69;;;15.06;53.56
73858;BME280;62195;55.030;73.278;2022-09-23T04:29:19;101069.56;;;15.16;52.92
73858;BME280;62195;55.030;73.278;2022-09-23T04:31:46;101069.06;;;15.25;52.83
73858;BME280;62195;55.030;73.278;2022-09-23T04:34:12;101071.47;;;15.30;53.01
73858;BME280;62195;55.030;73.278;2022-09-23T04:36:41;101078.22;;;15.35;52.63
73858;BME280;62195;55.030;73.278;2022-09-23T04:39:07;101085.84;;;15.42;51.99
73858;BME280;62195;55.030;73.278;2022-09-23T04:41:33;101088.22;;;15.46;52.02
73858;BME280;62195;55.030;73.278;2022-09-23T04:43:59;101089.78;;;15.50;52.33
73858;BME280;62195;55.030;73.278;2022-09-23T04:46:26;101091.34;;;15.55;51.71
73858;BME280;62195;55.030;73.278;2022-09-23T04:49:02;101095.19;;;15.65;52.11
73858;BME280;62195;55.030;73.278;2022-09-23T04:51:28;101094.84;;;15.71;51.90
73858;BME280;62195;55.030;73.278;2022-09-23T04:53:55;101086.81;;;15.73;51.44
73858;BME280;62195;55.030;73.278;2022-09-23T04:56:26;101098.53;;;15.85;51.41
73858;BME280;62195;55.030;73.278;2022-09-23T04:58:53;101095.59;;;15.89;51.24
73858;BME280;62195;55.030;73.278;2022-09-23T05:01:26;101083.94;;;15.94;51.63
73858;BME280;62195;55.030;73.278;2022-09-23T05:04:00;101085.66;;;15.95;50.87
73858;BME280;62195;55.030;73.278;2022-09-23T05:06:31;101079.16;;;16.00;51.31
73858;BME280;62195;55.030;73.278;2022-09-23T05:08:59;101085.81;;;16.08;51.56
73858;BME280;62195;55.030;73.278;2022-09-23T05:11:29;101091.56;;;16.16;51.03
73858;BME280;62195;55.030;73.278;2022-09-23T05:13:56;101085.03;;;16.22;50.13
73858;BME280;62195;55.030;73.278;2022-09-23T05:16:23;101083.66;;;16.30;50.28
73858;BME280;62195;55.030;73.278;2022-09-23T05:18:54;101080.06;;;16.31;50.36
73858;BME280;62195;55.030;73.278;2022-09-23T05:21:23;101085.41;;;16.46;50.29
73858;BME280;62195;55.030;73.278;2022-09-23T05:23:59;101071.81;;;16.52;49.82
73858;BME280;62195;55.030;73.278;2022-09-23T05:26:28;101064.34;;;16.59;49.42
73858;BME280;62195;55.030;73.278;2022-09-23T05:28:54;101059.13;;;16.57;49.73
73858;BME280;62195;55.030;73.278;2022-09-23T05:31:23;101052.53;;;16.65;49.78
73858;BME280;62195;55.030;73.278;2022-09-23T05:33:58;101057.56;;;16.69;49.84
73858;BME280;62195;55.030;73.278;2022-09-23T05:36:26;101051.03;;;16.75;49.70
73858;BME280;62195;55.030;73.278;2022-09-23T05:38:58;101045.56;;;16.78;49.39
73858;BME280;62195;55.030;73.278;2022-09-23T05:41:25;101048.59;;;16.87;49.40
73858;BME280;62195;55.030;73.278;2022-09-23T05:43:55;101031.72;;;16.88;49.40
73858;BME280;62195;55.030;73.278;2022-09-23T05:46:23;101047.59;;;17.04;48.83
73858;BME280;62195;55.030;73.278;2022-09-23T05:48:50;101047.59;;;17.04;49.05
73858;BME280;62195;55.030;73.278;2022-09-23T05:51:26;101053.38;;;17.10;49.30
73858;BME280;62195;55.030;73.278;2022-09-23T05:53:54;101055.84;;;17.14;48.82
73858;BME280;62195;55.030;73.278;2022-09-23T05:56:25;101035.00;;;17.07;48.98
73858;BME280;62195;55.030;73.278;2022-09-23T05:59:02;101051.09;;;17.19;48.44
73858;BME280;62195;55.030;73.278;2022-09-23T06:01:31;101048.91;;;17.25;48.65
73858;BME280;62195;55.030;73.278;2022-09-23T06:03:59;101042.47;;;17.30;48.39
73858;BME280;62195;55.030;73.278;2022-09-23T06:06:38;101033.28;;;17.35;48.59
73858;BME280;62195;55.030;73.278;2022-09-23T06:09:08;101039.81;;;17.44;48.39
73858;BME280;62195;55.030;73.278;2022-09-23T06:11:36;101035.72;;;17.53;48.07
73858;BME280;62195;55.030;73.278;2022-09-23T06:14:03;101015.59;;;17.63;48.01
73858;BME280;62195;55.030;73.278;2022-09-23T06:16:32;101018.81;;;17.69;47.35
73858;BME280;62195;55.030;73.278;2022-09-23T06:19:04;101018.59;;;17.72;48.01
73858;BME280;62195;55.030;73.278;2022-09-23T06:21:32;101015.47;;;17.80;47.32
73858;BME280;62195;55.030;73.278;2022-09-23T06:24:09;101022.72;;;17.90;46.96
73858;BME280;62195;55.030;73.278;2022-09-23T06:26:35;101026.97;;;18.08;46.39
73858;BME280;62195;55.030;73.278;2022-09-23T06:29:07;101017.25;;;18.34;46.54
73858;BME280;62195;55.030;73.278;2022-09-23T06:31:34;101016.13;;;18.51;46.31
73858;BME280;62195;55.030;73.278;2022-09-23T06:34:00;101019.53;;;18.66;45.39
73858;BME280;62195;55.030;73.278;2022-09-23T06:36:29;101022.50;;;18.62;44.61
73858;BME280;62195;55.030;73.278;2022-09-23T06:39:00;101022.28;;;18.52;45.05
73858;BME280;62195;55.030;73.278;2022-09-23T06:41:27;101012.06;;;18.45;44.82
73858;BME280;62195;55.030;73.278;2022-09-23T06:43:56;101002.81;;;18.51;45.22
73858;BME280;62195;55.030;73.278;2022-09-23T06:46:23;101002.50;;;18.56;45.43
73858;BME280;62195;55.030;73.278;2022-09-23T06:48:54;101004.19;;;18.57;44.85
73858;BME280;62195;55.030;73.278;2022-09-23T06:51:25;100992.81;;;18.55;44.89
73858;BME280;62195;55.030;73.278;2022-09-23T06:53:51;100983.16;;;18.54;44.73
73858;BME280;62195;55.030;73.278;2022-09-23T06:56:26;100992.41;;;18.61;45.19
73858;BME280;62195;55.030;73.278;2022-09-23T06:58:53;100984.44;;;18.74;45.23
73858;BME280;62195;55.030;73.278;2022-09-23T07:01:19;100979.31;;;18.84;44.92
73858;BME280;62195;55.030;73.278;2022-09-23T07:03:46;100989.09;;;18.96;44.66
73858;BME280;62195;55.030;73.278;2022-09-23T07:06:13;100987.50;;;19.07;44.30
73858;BME280;62195;55.030;73.278;2022-09-23T07:08:42;100988.78;;;19.14;43.72
73858;BME280;62195;55.030;73.278;2022-09-23T07:11:19;100994.44;;;19.09;44.55
73858;BME280;62195;55.030;73.278;2022-09-23T07:13:47;100988.03;;;19.12;43.76
73858;BME280;62195;55.030;73.278;2022-09-23T07:16:13;100989.63;;;19.15;43.77
73858;BME280;62195;55.030;73.278;2022-09-23T07:18:39;100997.38;;;19.18;43.97
73858;BME280;62195;55.030;73.278;2022-09-23T07:21:11;100992.06;;;19.18;43.74
73858;BME280;62195;55.030;73.278;2022-09-23T07:23:44;100998.25;;;19.18;43.61
73858;BME280;62195;55.030;73.278;2022-09-23T07:26:12;100996.53;;;19.17;43.35
73858;BME280;62195;55.030;73.278;2022-09-23T07:28:38;100996.44;;;19.19;43.38
73858;BME280;62195;55.030;73.278;2022-09-23T07:31:10;101001.44;;;19.23;43.54
73858;BME280;62195;55.030;73.278;2022-09-23T07:33:38;101002.31;;;19.11;43.13
73858;BME280;62195;55.030;73.278;2022-09-23T07:36:08;101004.00;;;19.12;43.21
73858;BME280;62195;55.030;73.278;2022-09-23T07:38:36;100999.22;;;19.17;42.68
73858;BME280;62195;55.030;73.278;2022-09-23T07:41:08;100991.84;;;19.21;43.30
73858;BME280;62195;55.030;73.278;2022-09-23T07:43:36;100987.81;;;19.15;43.17
73858;BME280;62195;55.030;73.278;2022-09-23T07:46:14;100986.09;;;19.14;43.11
73858;BME280;62195;55.030;73.278;2022-09-23T07:48:42;100987.81;;;19.15;42.72
73858;BME280;62195;55.030;73.278;2022-09-23T07:51:11;100976.75;;;19.21;41.95
73858;BME280;62195;55.030;73.278;2022-09-23T07:53:39;100966.09;;;19.21;42.95
73858;BME280;62195;55.030;73.278;2022-09-23T07:56:05;100962.22;;;19.25;42.77
73858;BME280;62195;55.030;73.278;2022-09-23T07:58:32;100948.81;;;19.27;43.04
73858;BME280;62195;55.030;73.278;2022-09-23T08:01:10;100953.88;;;19.43;43.24
73858;BME280;62195;55.030;73.278;2022-09-23T08:03:37;100937.69;;;19.46;42.95
73858;BME280;62195;55.030;73.278;2022-09-23T08:06:10;100933.16;;;19.60;43.02
73858;BME280;62195;55.030;73.278;2022-09-23T08:08:39;100939.09;;;19.63;42.72
73858;BME280;62195;55.030;73.278;2022-09-23T08:11:09;100941.44;;;19.68;43.32
73858;BME280;62195;55.030;73.278;2022-09-23T08:13:36;100917.56;;;19.67;42.98
73858;BME280;62195;55.030;73.278;2022-09-23T08:16:03;100926.69;;;19.75;42.86
73858;BME280;62195;55.030;73.278;2022-09-23T08:18:29;100932.53;;;19.81;42.60
73858;BME280;62195;55.030;73.278;2022-09-23T08:20:55;100928.16;;;19.80;42.25
73858;BME280;62195;55.030;73.278;2022-09-23T08:23:26;100924.75;;;19.77;42.25
73858;BME280;62195;55.030;73.278;2022-09-23T08:26:04;100929.63;;;19.84;42.99
73858;BME280;62195;55.030;73.278;2022-09-23T08:28:30;100918.97;;;19.84;43.07
73858;BME280;62195;55.030;73.278;2022-09-23T08:30:59;100917.66;;;19.89;42.05
73858;BME280;62195;55.030;73.278;2022-09-23T08:33:25;100916.56;;;19.92;42.06
73858;BME280;62195;55.030;73.278;2022-09-23T08:35:52;100908.38;;;19.95;42.50
73858;BME280;62195;55.030;73.278;2022-09-23T08:38:18;100905.47;;;19.98;42.22
73858;BME280;62195;55.030;73.278;2022-09-23T08:40:48;100906.53;;;19.96;42.12
73858;BME280;62195;55.030;73.278;2022-09-23T08:43:29;100915.59;;;19.93;41.82
73858;BME280;62195;55.030;73.278;2022-09-23T08:45:59;100925.97;;;19.98;41.46
73858;BME280;62195;55.030;73.278;2022-09-23T08:48:36;100924.88;;;20.00;41.39
73858;BME280;62195;55.030;73.278;2022-09-23T08:51:06;100929.34;;;20.00;41.22
73858;BME280;62195;55.030;73.278;2022-09-23T08:53:39;100929.84;;;20.05;41.23
73858;BME280;62195;55.030;73.278;2022-09-23T08:56:19;100954.22;;;20.12;41.46
73858;BME280;62195;55.030;73.278;2022-09-23T08:59:13;100947.16;;;20.11;40.80
73858;BME280;62195;55.030;73.278;2022-09-23T09:02:20;100945.72;;;20.07;41.26
73858;BME280;62195;55.030;73.278;2022-09-23T09:04:54;100939.94;;;20.13;41.17
73858;BME280;62195;55.030;73.278;2022-09-23T09:07:26;100921.50;;;20.10;41.04
73858;BME280;62195;55.030;73.278;2022-09-23T09:09:59;100927.09;;;20.18;41.01
73858;BME280;62195;55.030;73.278;2022-09-23T09:12:52;100913.03;;;20.16;40.86
73858;BME280;62195;55.030;73.278;2022-09-23T09:15:25;100907.22;;;20.22;40.66
73858;BME280;62195;55.030;73.278;2022-09-23T09:18:11;100914.03;;;20.26;40.88
73858;BME280;62195;55.030;73.278;2022-09-23T09:20:39;100897.91;;;20.28;40.78
73858;BME280;62195;55.030;73.278;2022-09-23T09:23:15;100903.84;;;20.31;41.55
73858;BME280;62195;55.030;73.278;2022-09-23T09:25:51;100902.41;;;20.39;40.74
73858;BME280;62195;55.030;73.278;2022-09-23T09:28:25;100911.00;;;20.42;40.81
73858;BME280;62195;55.030;73.278;2022-09-23T09:33:59;100918.66;;;20.47;40.58
73858;BME280;62195;55.030;73.278;2022-09-23T09:39:20;100908.00;;;20.47;41.01
73858;BME280;62195;55.030;73.278;2022-09-23T09:41:49;100912.97;;;20.52;40.71
73858;BME280;62195;55.030;73.278;2022-09-23T09:47:39;100893.19;;;20.43;40.77
73858;BME280;62195;55.030;73.278;2022-09-23T09:50:15;100881.94;;;20.39;40.18
73858;BME280;62195;55.030;73.278;2022-09-23T09:52:52;100890.31;;;20.46;40.00
73858;BME280;62195;55.030;73.278;2022-09-23T09:55:38;100890.31;;;20.46;40.09
73858;BME280;62195;55.030;73.278;2022-09-23T09:58:11;100896.34;;;20.48;41.01
73858;BME280;62195;55.030;73.278;2022-09-23T10:00:43;100892.72;;;20.49;40.73
73858;BME280;62195;55.030;73.278;2022-09-23T10:11:35;100883.50;;;20.53;40.93
73858;BME280;62195;55.030;73.278;2022-09-23T10:13:36;100887.16;;;20.52;40.58
73858;BME280;62195;55.030;73.278;2022-09-23T10:16:03;100880.59;;;20.56;40.89
73858;BME280;62195;55.030;73.278;2022-09-23T10:21:13;100866.41;;;20.56;40.80
73858;BME280;62195;55.030;73.278;2022-09-23T10:23:44;100869.91;;;20.56;41.32
73858;BME280;62195;55.030;73.278;2022-09-23T10:26:11;100866.78;;;20.63;40.79
73858;BME280;62195;55.030;73.278;2022-09-23T10:28:51;100865.66;;;20.65;40.84
73858;BME280;62195;55.030;73.278;2022-09-23T10:31:30;100814.19;;;20.30;41.24
73858;BME280;62195;55.030;73.278;2022-09-23T10:34:02;100861.47;;;20.63;41.23
73858;BME280;62195;55.030;73.278;2022-09-23T10:37:12;100862.16;;;20.65;41.72
73858;BME280;62195;55.030;73.278;2022-09-23T10:39:39;100854.88;;;20.67;40.72
73858;BME280;62195;55.030;73.278;2022-09-23T10:42:38;100853.91;;;20.68;40.42
73858;BME280;62195;55.030;73.278;2022-09-23T10:45:33;100856.56;;;20.68;41.13
73858;BME280;62195;55.030;73.278;2022-09-23T10:54:07;100834.50;;;20.77;41.07
73858;BME280;62195;55.030;73.278;2022-09-23T10:56:49;100839.84;;;20.77;40.80
73858;BME280;62195;55.030;73.278;2022-09-23T11:03:00;100832.22;;;20.73;40.62
73858;BME280;62195;55.030;73.278;2022-09-23T11:05:46;100830.63;;;20.81;40.52
73858;BME280;62195;55.030;73.278;2022-09-23T11:11:02;100828.09;;;20.68;40.30
73858;BME280;62195;55.030;73.278;2022-09-23T11:13:41;100824.13;;;20.63;41.67
73858;BME280;62195;55.030;73.278;2022-09-23T11:16:22;100826.53;;;20.54;41.18
73858;BME280;62195;55.030;73.278;2022-09-23T11:27:44;100820.00;;;20.24;42.84
73858;BME280;62195;55.030;73.278;2022-09-23T11:30:19;100822.41;;;20.16;43.04
73858;BME280;62195;55.030;73.278;2022-09-23T11:36:03;100803.75;;;20.04;43.66
73858;BME280;62195;55.030;73.278;2022-09-23T11:38:38;100812.97;;;20.12;43.20
73858;BME280;62195;55.030;73.278;2022-09-23T11:41:26;100812.97;;;20.00;44.10
73858;BME280;62195;55.030;73.278;2022-09-23T11:49:24;100812.03;;;19.77;44.14
73858;BME280;62195;55.030;73.278;2022-09-23T11:52:13;100809.75;;;19.72;44.47
73858;BME280;62195;55.030;73.278;2022-09-23T11:54:56;100810.44;;;19.63;44.49
73858;BME280;62195;55.030;73.278;2022-09-23T11:57:56;100808.97;;;19.59;44.87
73858;BME280;62195;55.030;73.278;2022-09-23T12:00:22;100809.69;;;19.49;44.20
73858;BME280;62195;55.030;73.278;2022-09-23T12:03:24;100813.28;;;19.48;44.24
73858;BME280;62195;55.030;73.278;2022-09-23T12:05:47;100811.78;;;19.33;44.55
73858;BME280;62195;55.030;73.278;2022-09-23T12:08:30;100811.78;;;19.33;44.84
73858;BME280;62195;55.030;73.278;2022-09-23T12:27:41;100822.72;;;18.79;46.94
73858;BME280;62195;55.030;73.278;2022-09-23T12:30:27;100822.75;;;18.66;46.59
73858;BME280;62195;55.030;73.278;2022-09-23T12:33:08;100828.72;;;18.57;46.74
73858;BME280;62195;55.030;73.278;2022-09-23T12:35:47;100823.22;;;18.47;48.55
73858;BME280;62195;55.030;73.278;2022-09-23T12:38:23;100832.69;;;18.38;48.59
73858;BME280;62195;55.030;73.278;2022-09-23T12:40:52;100822.06;;;18.25;49.50
73858;BME280;62195;55.030;73.278;2022-09-23T12:43:30;100826.22;;;18.16;50.30
73858;BME280;62195;55.030;73.278;2022-09-23T12:46:25;100826.03;;;18.07;50.68
73858;BME280;62195;55.030;73.278;2022-09-23T12:49:04;100824.81;;;17.98;51.37
73858;BME280;62195;55.030;73.278;2022-09-23T12:51:35;100818.09;;;17.79;51.46
73858;BME280;62195;55.030;73.278;2022-09-23T13:01:43;100835.16;;;17.49;53.49
73858;BME280;62195;55.030;73.278;2022-09-23T13:04:32;100832.44;;;17.36;53.31
73858;BME280;62195;55.030;73.278;2022-09-23T13:07:29;100819.91;;;17.25;53.96
73858;BME280;62195;55.030;73.278;2022-09-23T13:12:56;100831.72;;;17.06;55.22
73858;BME280;62195;55.030;73.278;2022-09-23T13:15:25;100825.06;;;16.99;55.32
73858;BME280;62195;55.030;73.278;2022-09-23T13:21:16;100823.03;;;16.75;55.22
73858;BME280;62195;55.030;73.278;2022-09-23T13:26:52;100817.97;;;16.57;56.07
73858;BME280;62195;55.030;73.278;2022-09-23T13:29:24;100820.03;;;16.52;56.67
73858;BME280;62195;55.030;73.278;2022-09-23T13:31:53;100821.47;;;16.43;57.21
73858;BME280;62195;55.030;73.278;2022-09-23T13:34:23;100828.94;;;16.37;57.67
73858;BME280;62195;55.030;73.278;2022-09-23T13:36:51;100819.75;;;16.28;57.72
73858;BME280;62195;55.030;73.278;2022-09-23T13:39:26;100815.88;;;16.19;58.46
73858;BME280;62195;55.030;73.278;2022-09-23T13:42:03;100826.84;;;16.13;58.83
73858;BME280;62195;55.030;73.278;2022-09-23T13:44:30;100823.72;;;16.06;59.03
73858;BME280;62195;55.030;73.278;2022-09-23T13:47:02;100817.00;;;16.00;59.17
73858;BME280;62195;55.030;73.278;2022-09-23T13:49:34;100828.94;;;15.93;59.43
73858;BME280;62195;55.030;73.278;2022-09-23T13:52:25;100828.50;;;15.85;60.10
73858;BME280;62195;55.030;73.278;2022-09-23T13:54:52;100832.38;;;15.79;60.58
73858;BME280;62195;55.030;73.278;2022-09-23T13:57:30;100836.03;;;15.76;60.70
73858;BME280;62195;55.030;73.278;2022-09-23T14:00:14;100826.75;;;15.69;61.25
73858;BME280;62195;55.030;73.278;2022-09-23T14:02:42;100839.50;;;15.62;61.15
73858;BME280;62195;55.030;73.278;2022-09-23T14:05:25;100821.69;;;15.50;61.02
73858;BME280;62195;55.030;73.278;2022-09-23T14:07:53;100833.88;;;15.52;61.64
73858;BME280;62195;55.030;73.278;2022-09-23T14:10:22;100837.66;;;15.48;62.24
73858;BME280;62195;55.030;73.278;2022-09-23T14:12:50;100836.13;;;15.44;61.55
73858;BME280;62195;55.030;73.278;2022-09-23T14:15:18;100845.97;;;15.42;61.78
73858;BME280;62195;55.030;73.278;2022-09-23T14:18:05;100835.03;;;15.32;62.56
73858;BME280;62195;55.030;73.278;2022-09-23T14:20:47;100733.00;;;14.65;62.10
73858;BME280;62195;55.030;73.278;2022-09-23T14:23:15;100843.31;;;15.26;63.07
73858;BME280;62195;55.030;73.278;2022-09-23T14:25:52;100829.94;;;15.13;62.17
73858;BME280;62195;55.030;73.278;2022-09-23T14:28:26;100839.25;;;15.20;61.82
73858;BME280;62195;55.030;73.278;2022-09-23T14:30:55;100835.81;;;15.18;62.29
73858;BME280;62195;55.030;73.278;2022-09-23T14:33:33;100831.75;;;15.13;62.05
73858;BME280;62195;55.030;73.278;2022-09-23T14:36:08;100821.50;;;15.06;61.78
73858;BME280;62195;55.030;73.278;2022-09-23T14:39:07;100823.28;;;15.06;62.10
73858;BME280;62195;55.030;73.278;2022-09-23T14:41:36;100824.22;;;15.05;62.46
73858;BME280;62195;55.030;73.278;2022-09-23T14:44:20;100822.69;;;15.01;62.83
73858;BME280;62195;55.030;73.278;2022-09-23T14:46:57;100825.59;;;14.96;62.67
73858;BME280;62195;55.030;73.278;2022-09-23T14:49:26;100831.91;;;14.93;62.53
73858;BME280;62195;55.030;73.278;2022-09-23T14:51:58;100827.66;;;14.91;63.33
73858;BME280;62195;55.030;73.278;2022-09-23T14:54:44;100836.00;;;14.83;63.52
73858;BME280;62195;55.030;73.278;2022-09-23T14:57:25;100826.38;;;14.82;63.02
73858;BME280;62195;55.030;73.278;2022-09-23T15:00:11;100827.31;;;14.81;62.66
73858;BME280;62195;55.030;73.278;2022-09-23T15:03:00;100815.78;;;14.66;63.59
73858;BME280;62195;55.030;73.278;2022-09-23T15:05:45;100826.09;;;14.70;63.11
73858;BME280;62195;55.030;73.278;2022-09-23T15:08:19;100826.09;;;14.70;62.89